Accueil
METAR-TAF:

METAR-TAF

Aéroports :

Barcelone, Espagne

Aéroport de Barcelone-El Prat

latitude: 41-17N, longitude: 002-04E, altitude: 4 m

Observation

Le bulletin a été fait il y a 37 minutes, à 00:00 UTC
Vent 6 kt de nord-ouest
Température 5°C
Humidité 65%
Pression 1008 hPa
Visibilité 10 km ou plus
Quelques nuages à une hauteur de 2500 ft

METAR: LEBL 220000Z 32006KT 9999 FEW025 05/M01 Q1008 NOSIG

Heure: 01:37 (00:37 UTC)

Prévision

Le bulletin a été fait il y a 1 heure et 37 minutes, à 23:00 UTC
Prévision valable du 22 à 00 UTC au 22 à 24 UTC
Vent 7 kt de nord/nord-ouest
Visibilité 10 km ou plus
Quelques nuages à une hauteur de 2500 ft
Evoluant progressivement
du 22 à 10 UTC au 22 à 12 UTC
Vent 9 kt de sud-est
Evoluant progressivement
du 22 à 22 UTC au 22 à 24 UTC
Vent 8 kt de nord/nord-ouest

TAF: LEBL 212300Z 2200/2224 33007KT 9999 FEW025 TX10/2212Z TN03/2206Z BECMG 2210/2212 14009KT BECMG 2222/2224 34008KT

Observations et prévisions météorologiques de plus de 4000 aéroports (messages METAR et TAF).

Les stations disponibles sont représentées par des disques jaunes et rouges sur la carte.

Passer la souris dessus pour voir le nom de la station.

Cliquer dessus pour voir les observations et prévisions météorologiques.

Pour changer de carte: cliquez sur les boutons verts avec une croix noire pour zoomer, sur le bouton vert avec un tiret pour effectuer un zoom arrière, ou sur les flèches vertes pour les cartes adjacentes.


METAR-TAF: